Aérodrome :







RETROUVEZ-NOUS SUR...

 
LOGIN :

S'inscrire | Disclaimer

   EN    FR    IT 

 









Légende :    VFR   VFR Marginal   IFR   IFR Intensif   IFR Très Intensif
Visi : 
Plafond : 
>= 8 km
>= 3000ft
5 à 8 km
1000 à 3000 ft
1500m à 5 km
500 à 1000 ft
800 à 1500m
200 à 500 ft
< 800m
< 200 ft
Symboles :   Orages  Brouillard  Fortes neiges  Fortes précipitations  Vent > 20 kt






- Altitude de l'aérodrome : 271 ft


KBAF - Barnes Municipal

DERNIER METAR :
  • 200353Z AUTO 34004KT 10SM OVC020 04/01 A2985 RMK AO2 SLP113 T00390006

METARs EXPIRÉS :
  • 200253Z 35003KT 10SM OVC023 04/01 A2986 RMK AO2 SLP116 T00440006 52003
  • 200153Z 06003KT 10SM OVC025 04/01 A2986 RMK AO2 SLP115 T00440006

TAF KBAF
Valide du 20 à 00h jusqu'au 21 à 00h UTC


192327Z 2000/2024 32007KT P6SM OVC028
FM200300 34003KT P6SM BKN030
FM200700 35003KT P6SM OVC015
FM201200 35004KT P6SM OVC008
FM201500 34005KT P6SM OVC010
FM201800 33007KT P6SM VCSH OVC020



MET'MAP, la Météo Aéronautique d'un coup d'oeil ! - Copyright ORBIFLY Décembre 2007 - Disclaimer

ORBIFLY MET'MAP TEAM :

Programmation & Développement : Alexandra Zaïnal
Conception & Développement : Baudouin d'Aumeries
Co-Programmation & Développement : Marc-Olivier Méhu
Soutien technique & logistique : Manuel Goepfert

Contact : metmap@orbifly.com




SOURCES & CREDITS :

   NOAA